Ines Indart, Argentina
Current Conditions -  °F | °C
As of 1:00 PM on Wednesday 26 Nov 2014 (Local Time) from SAAR Reporting Station
Clear Clear  
Wind Chill: 82°   Ceiling: Unl
Heat Index: 82°   Visibility: 6mi
Dew Point: 54°   Wind: 9mph
Humidity: 37%   Direction: 180°S
Pressure: 29.91"   Gusts: NA
Location:  34.4°S, 60.55°W
Report Text: SAAR 261600Z 18008KT CAVOK 28/12 Q1013
Loading
Personal Weather Stations






























Interactive Weather Map New forecast layout! Learn more

10-Day Weather Forecast

Advertisements
Track Severe Weather on mobile